Flight Track Log - Related Links

Times and Time Zones

All times are in EDT time to prevent confusion due to time zone crossing. See the FFT532 flight status page for this flight to view local times or setup timezone preferences in your user account.

Time Position Orientation Groundspeed Altitude Reporting Facility
EDT Latitude Longitude Course Direction KTS MPH feet Rate Location/Type
Fri 09:36:24 AM 39.8330 -104.6420 90° East 160 184 5,400  Level FlightAware ADS-B
Fri 09:36:54 AM 39.8120 -104.6330 162° South 165 190 6,500 1,731 Climbing FlightAware ADS-B
Fri 09:37:16 AM 39.7980 -104.6190 142° Southeast 181 208 6,900 1,000 Climbing FlightAware ADS-B
Fri 09:37:24 AM 39.7930 -104.6120 133° Southeast 190 219 7,000 750 Climbing FlightAware ADS-B
Fri 09:37:32 AM 39.7890 -104.6040 123° Southeast 201 231 7,100 800 Climbing FlightAware ADS-B
Fri 09:37:39 AM 39.7880 -104.5960 99° East 210 242 7,200 667 Climbing FlightAware ADS-B
Fri 09:38:08 AM 39.7930 -104.5560 81° East 256 295 7,500 612 Climbing FlightAware ADS-B
Fri 09:38:28 AM 39.7970 -104.5270 80° East 284 327 7,700 1,350 Climbing FlightAware ADS-B
Fri 09:38:48 AM 39.8010 -104.4880 82° East 297 342 8,400 2,550 Climbing FlightAware ADS-B
Fri 09:39:08 AM 39.8050 -104.4530 82° East 298 343 9,400 2,291 Climbing FlightAware ADS-B
Fri 09:39:43 AM 39.8120 -104.3880 82° East 321 369 10,500 1,726 Climbing FlightAware ADS-B
Fri 09:40:21 AM 39.8210 -104.3120 81° East 349 402 11,500 1,457 Climbing FlightAware ADS-B
Fri 09:40:53 AM 39.8290 -104.2420 82° East 376 433 12,200 1,545 Climbing FlightAware ADS-B
Fri 09:41:27 AM 39.8370 -104.1670 82° East 388 447 13,200 2,057 Climbing FlightAware ADS-B
Fri 09:42:03 AM 39.8460 -104.0840 82° East 393 452 14,600 2,167 Climbing FlightAware ADS-B
Fri 09:42:39 AM 39.8560 -103.9960 82° East 401 461 15,800 2,000 Climbing FlightAware ADS-B
Fri 09:43:15 AM 39.8650 -103.9100 82° East 408 470 17,000 2,029 Climbing FlightAware ADS-B
Fri 09:43:47 AM 39.8740 -103.8300 82° East 412 474 18,100 1,969 Climbing FlightAware ADS-B
Fri 09:44:19 AM 39.8820 -103.7520 82° East 414 476 19,100 1,886 Climbing FlightAware ADS-B
Fri 09:44:57 AM 39.8920 -103.6610 82° East 418 481 20,300 1,737 Climbing FlightAware ADS-B
Fri 09:45:35 AM 39.9040 -103.5610 81° East 428 493 21,300 1,703 Climbing FlightAware ADS-B
Fri 09:46:11 AM 39.9140 -103.4720 82° East 429 494 22,400 1,412 Climbing FlightAware ADS-B
Fri 09:46:43 AM 39.9240 -103.3870 81° East 441 507 22,900 1,235 Climbing FlightAware ADS-B
Fri 09:47:19 AM 39.9340 -103.2920 82° East 448 516 23,800 1,333 Climbing FlightAware ADS-B
Fri 09:47:55 AM 39.9450 -103.1950 82° East 455 524 24,500 1,059 Climbing FlightAware ADS-B
Fri 09:48:27 AM 39.9550 -103.1080 81° East 463 533 25,000 1,114 Climbing FlightAware ADS-B
Fri 09:49:05 AM 39.9660 -103.0020 82° East 467 537 25,800 1,120 Climbing FlightAware ADS-B
Fri 09:49:42 AM 39.9770 -102.9000 82° East 474 545 26,400 1,200 Climbing FlightAware ADS-B
Fri 09:50:15 AM 39.9880 -102.8050 81° East 474 545 27,200 1,217 Climbing FlightAware ADS-B
Fri 09:50:51 AM 39.9990 -102.7020 82° East 479 551 27,800 882 Climbing FlightAware ADS-B
Fri 09:51:23 AM 40.0080 -102.6140 82° East 484 557 28,200 971 Climbing FlightAware ADS-B
Fri 09:51:59 AM 40.0190 -102.5080 82° East 486 559 28,900 649 Climbing FlightAware ADS-B
Fri 09:52:37 AM 40.0290 -102.4130 82° East 486 559 29,000 80 Climbing FlightAware ADS-B
Fri 09:53:14 AM 40.0390 -102.3210 82° East 486 559 29,000  Level FlightAware ADS-B
Fri 09:53:48 AM 40.0480 -102.2370 82° East 486 559 29,000  Level FlightAware ADS-B
Fri 09:54:25 AM 40.0580 -102.1460 82° East 486 559 29,000  Level FlightAware ADS-B
Fri 09:55:02 AM 40.0680 -102.0540 82° East 486 559 29,000  Level FlightAware ADS-B
Fri 09:55:38 AM 40.0770 -101.9650 82° East 486 559 29,000 3,455 Level FlightAware ADS-B
Fri 09:56:41 AM 40.0989 -101.7167 82° East 474 545 34,700 3,290 Climbing Denver Center
Fri 09:57:42 AM 40.1142 -101.5547 83° East 471 542 35,800 1,122 Climbing Denver Center
Fri 09:58:44 AM 40.1322 -101.3678 83° East 466 536 37,000 585 Climbing Denver Center
Fri 09:59:45 AM 40.1467 -101.2114 83° East 458 527 37,000 49 Level Denver Center
Fri 10:00:47 AM 40.1642 -101.0292 83° East 455 524 37,100 49 Climbing Denver Center
Fri 10:01:48 AM 40.1789 -100.8703 83° East 460 529 37,100  Level Denver Center
Fri 10:02:50 AM 40.1953 -100.6850 83° East 462 532 37,100  Level Denver Center
Fri 10:03:51 AM 40.2047 -100.5267 85° East 459 528 37,100 -49 Level Denver Center
Fri 10:04:53 AM 40.2069 -100.3667 89° East 462 532 37,000 -49 Descending Denver Center
Fri 10:05:54 AM 40.2097 -100.1797 89° East 462 532 37,000 49 Level Denver Center
Fri 10:06:56 AM 40.2119 -100.0192 89° East 462 532 37,100 49 Climbing Denver Center
Fri 10:07:57 AM 40.2147 -99.8444 89° East 463 533 37,100  Level Denver Center
Fri 10:08:59 AM 40.2161 -99.6739 89° East 468 539 37,100  Level Denver Center
Fri 10:10:00 AM 40.2178 -99.5044 89° East 466 536 37,100 -49 Level Denver Center
Fri 10:11:02 AM 40.2200 -99.3358 89° East 466 536 37,000 -14 Descending Denver Center
Fri 10:16:58 AM 40.2230 -98.2960 89° East 466 536 37,000  Level FlightAware ADS-B
Fri 10:17:54 AM 40.2220 -98.1540 90° East 466 536 37,000 66 Level FlightAware ADS-B
Fri 10:18:29 AM 40.2220 -98.0460 90° East 467 537 37,100 85 Climbing FlightAware ADS-B
Fri 10:19:05 AM 40.2210 -97.9390 91° East 468 539 37,100  Level FlightAware ADS-B
Fri 10:19:36 AM 40.2210 -97.8570 90° East 468 539 37,100 -83 Level FlightAware ADS-B
Fri 10:20:17 AM 40.2200 -97.7350 91° East 470 541 37,000 -81 Descending FlightAware ADS-B
Fri 10:20:50 AM 40.2200 -97.6420 90° East 471 542 37,000 71 Level FlightAware ADS-B
Fri 10:21:41 AM 40.2190 -97.5040 90° East 472 543 37,100 67 Climbing FlightAware ADS-B
Fri 10:22:19 AM 40.2180 -97.3890 91° East 471 542 37,100  Level FlightAware ADS-B
Fri 10:22:54 AM 40.2170 -97.2910 91° East 470 541 37,100 -83 Level FlightAware ADS-B
Fri 10:23:31 AM 40.2150 -97.1840 91° East 469 540 37,000 -86 Descending FlightAware ADS-B
Fri 10:24:04 AM 40.2140 -97.0930 91° East 470 541 37,000  Level FlightAware ADS-B
Fri 10:24:41 AM 40.2130 -96.9880 91° East 471 542 37,000  Level FlightAware ADS-B
Fri 10:25:15 AM 40.2160 -96.8890 88° East 466 536 37,000 88 Level FlightAware ADS-B
Fri 10:25:49 AM 40.2290 -96.7970 79° East 464 534 37,100 83 Climbing FlightAware ADS-B
Fri 10:26:27 AM 40.2460 -96.6950 78° East 463 533 37,100  Level FlightAware ADS-B
Fri 10:27:01 AM 40.2610 -96.5990 78° East 462 532 37,100  Level FlightAware ADS-B
Fri 10:27:34 AM 40.2760 -96.5080 78° East 462 532 37,100 -90 Level FlightAware ADS-B
Fri 10:28:08 AM 40.2900 -96.4150 79° East 464 534 37,000 -82 Descending FlightAware ADS-B
Fri 10:28:47 AM 40.3070 -96.3090 78° East 464 534 37,000 81 Level FlightAware ADS-B
Fri 10:29:22 AM 40.3220 -96.2130 78° East 464 534 37,100 87 Climbing FlightAware ADS-B
Fri 10:29:56 AM 40.3370 -96.1180 78° East 464 534 37,100  Level FlightAware ADS-B
Fri 10:30:31 AM 40.3510 -96.0260 79° East 461 531 37,100  Level FlightAware ADS-B
Fri 10:31:07 AM 40.3670 -95.9280 78° East 458 527 37,100  Level FlightAware ADS-B
Fri 10:31:38 AM 40.3800 -95.8410 79° East 454 522 37,100  Level FlightAware ADS-B
Fri 10:32:16 AM 40.3950 -95.7410 79° East 452 520 37,100 -82 Level FlightAware ADS-B
Fri 10:32:51 AM 40.4100 -95.6480 78° East 450 518 37,000 -88 Descending FlightAware ADS-B
Fri 10:33:24 AM 40.4230 -95.5570 79° East 448 516 37,000  Level FlightAware ADS-B
Fri 10:33:59 AM 40.4370 -95.4660 79° East 448 516 37,000  Level FlightAware ADS-B
Fri 10:34:34 AM 40.4510 -95.3710 79° East 449 517 37,000  Level FlightAware ADS-B
Fri 10:35:08 AM 40.4650 -95.2790 79° East 451 519 37,000  Level FlightAware ADS-B
Fri 10:35:42 AM 40.4760 -95.2010 79° East 453 521 37,000  Level FlightAware ADS-B
Fri 10:36:20 AM 40.4930 -95.0870 79° East 456 525 37,000 80 Level FlightAware ADS-B
Fri 10:36:57 AM 40.5080 -94.9850 79° East 457 526 37,100 86 Climbing FlightAware ADS-B
Fri 10:37:30 AM 40.5200 -94.8990 80° East 456 525 37,100  Level FlightAware ADS-B
Fri 10:38:15 AM 40.5370 -94.7840 79° East 452 520 37,100  Level FlightAware ADS-B
Fri 10:39:04 AM 40.5570 -94.6460 79° East 449 517 37,100 -75 Level FlightAware ADS-B
Fri 10:39:35 AM 40.5680 -94.5650 80° East 449 517 37,000 -92 Descending FlightAware ADS-B
Fri 10:40:09 AM 40.5820 -94.4690 79° East 447 514 37,000  Level FlightAware ADS-B
Fri 10:40:45 AM 40.5960 -94.3720 79° East 447 514 37,000  Level FlightAware ADS-B
Fri 10:41:16 AM 40.6070 -94.2900 80° East 447 514 37,000  Level FlightAware ADS-B
Fri 10:41:49 AM 40.6190 -94.2010 80° East 448 516 37,000  Level FlightAware ADS-B
Fri 10:42:25 AM 40.6320 -94.1050 80° East 448 516 37,000 90 Level FlightAware ADS-B
Fri 10:42:56 AM 40.6430 -94.0250 80° East 448 516 37,100 79 Climbing FlightAware ADS-B
Fri 10:43:41 AM 40.6600 -93.9020 80° East 448 516 37,100  Level FlightAware ADS-B
Fri 10:44:20 AM 40.6730 -93.8130 79° East 448 516 37,100  Level FlightAware ADS-B
Fri 10:44:59 AM 40.6880 -93.6940 81° East 448 516 37,100  Level FlightAware ADS-B
Fri 10:45:41 AM 40.7020 -93.5960 79° East 448 516 37,100  Level FlightAware ADS-B
Fri 10:46:16 AM 40.7150 -93.4930 81° East 450 518 37,100  Level FlightAware ADS-B
Fri 10:46:52 AM 40.7280 -93.3890 81° East 448 516 37,100  Level FlightAware ADS-B
Fri 10:47:25 AM 40.7400 -93.3000 80° East 448 516 37,100  Level FlightAware ADS-B
Fri 10:47:48 AM 40.7480 -93.2420 80° East 447 514 37,100 -95 Level FlightAware ADS-B
Fri 10:48:28 AM 40.7620 -93.1310 81° East 448 516 37,000 -79 Descending FlightAware ADS-B
Fri 10:49:04 AM 40.7740 -93.0350 81° East 449 517 37,000 86 Level FlightAware ADS-B
Fri 10:49:38 AM 40.7860 -92.9430 80° East 448 516 37,100 97 Climbing FlightAware ADS-B
Fri 10:50:06 AM 40.7950 -92.8690 81° East 447 514 37,100 -94 Level FlightAware ADS-B
Fri 10:50:42 AM 40.8070 -92.7700 81° East 446 513 37,000  Descending FlightAware ADS-B
Fri 10:51:12 AM 40.8170 -92.6920 80° East 445 512 37,100  Climbing FlightAware ADS-B
Fri 10:51:53 AM 40.8310 -92.5810 81° East 445 512 37,000 -73 Descending FlightAware ADS-B
Fri 10:52:34 AM 40.8440 -92.4750 81° East 446 513 37,000 -225 Level FlightAware ADS-B
Fri 10:53:13 AM 40.8570 -92.3660 81° East 449 517 36,700 -553 Descending FlightAware ADS-B
Fri 10:53:50 AM 40.8690 -92.2680 81° East 450 518 36,300 -575 Descending FlightAware ADS-B
Fri 10:54:26 AM 40.8810 -92.1660 81° East 456 525 36,000 -618 Descending FlightAware ADS-B
Fri 10:54:58 AM 40.8920 -92.0790 80° East 460 529 35,600 -623 Descending FlightAware ADS-B
Fri 10:55:43 AM 40.9060 -91.9570 81° East 457 526 35,200 -565 Descending FlightAware ADS-B
Fri 10:56:23 AM 40.9190 -91.8440 81° East 456 525 34,800 -553 Descending FlightAware ADS-B
Fri 10:56:59 AM 40.9310 -91.7460 81° East 458 527 34,500 -396 Descending FlightAware ADS-B
Fri 10:57:54 AM 40.9470 -91.6090 81° East 461 531 34,200 -645 Descending FlightAware ADS-B
Fri 10:58:32 AM 40.9600 -91.4890 82° East 462 532 33,500 -845 Descending FlightAware ADS-B
Fri 10:59:05 AM 40.9710 -91.4030 80° East 459 528 33,200 -600 Descending FlightAware ADS-B
Fri 10:59:42 AM 40.9850 -91.2960 80° East 462 532 32,800 -553 Descending FlightAware ADS-B
Fri 11:00:21 AM 40.9980 -91.1850 81° East 456 525 32,500 -608 Descending FlightAware ADS-B
Fri 11:01:01 AM 41.0100 -91.0750 82° East 457 526 32,000 -2,739 Descending FlightAware ADS-B
Fri 11:01:53 AM 41.0250 -90.9260 82° East 477 549 28,300 -3,910 Descending FlightAware ADS-B
Fri 11:02:30 AM 41.0370 -90.8210 81° East 468 539 26,200 -3,043 Descending FlightAware ADS-B
Fri 11:03:02 AM 41.0460 -90.7360 82° East 455 524 24,800 -2,206 Descending FlightAware ADS-B
Fri 11:03:38 AM 41.0560 -90.6400 82° East 437 503 23,700 -1,457 Descending FlightAware ADS-B
Fri 11:04:12 AM 41.0650 -90.5500 82° East 429 494 23,100 -1,000 Descending FlightAware ADS-B
Fri 11:04:44 AM 41.0740 -90.4650 82° East 427 491 22,600 -973 Descending FlightAware ADS-B
Fri 11:05:26 AM 41.0850 -90.3570 82° East 426 490 21,900 -1,054 Descending FlightAware ADS-B
Fri 11:05:58 AM 41.0930 -90.2700 83° East 424 488 21,300 -794 Descending FlightAware ADS-B
Fri 11:06:34 AM 41.1020 -90.1800 82° East 423 487 21,000 -257 Descending FlightAware ADS-B
Fri 11:07:08 AM 41.1110 -90.0950 82° East 422 486 21,000 -182 Level FlightAware ADS-B
Fri 11:07:40 AM 41.1190 -90.0100 83° East 416 479 20,800 -1,391 Descending FlightAware ADS-B
Fri 11:08:17 AM 41.1280 -89.9210 82° East 413 475 19,400 -2,270 Descending FlightAware ADS-B
Fri 11:08:54 AM 41.1370 -89.8240 83° East 408 470 18,000 -2,137 Descending FlightAware ADS-B
Fri 11:09:30 AM 41.1460 -89.7360 82° East 399 459 16,800 -1,971 Descending FlightAware ADS-B
Fri 11:10:04 AM 41.1540 -89.6530 83° East 393 452 15,700 -1,853 Descending FlightAware ADS-B
Fri 11:10:38 AM 41.1610 -89.5750 83° East 390 449 14,700 -1,322 Descending FlightAware ADS-B
Fri 11:11:03 AM 41.1670 -89.5210 82° East 388 447 14,400 -684 Descending FlightAware ADS-B
Fri 11:11:57 AM 41.1960 -89.3920 73° East 388 447 13,800 -698 Descending FlightAware ADS-B
Fri 11:12:29 AM 41.2130 -89.3200 73° East 386 444 13,400 -716 Descending FlightAware ADS-B
Fri 11:13:04 AM 41.2380 -89.2470 65° Northeast 380 437 13,000 -667 Descending FlightAware ADS-B
Fri 11:13:41 AM 41.2640 -89.1680 66° East 376 433 12,600 -686 Descending FlightAware ADS-B
Fri 11:14:14 AM 41.2880 -89.0970 66° East 375 432 12,200 -646 Descending FlightAware ADS-B
Fri 11:14:46 AM 41.3100 -89.0330 65° Northeast 369 425 11,900 -676 Descending FlightAware ADS-B
Fri 11:15:25 AM 41.3370 -88.9520 66° East 368 423 11,400 -904 Descending FlightAware ADS-B
Fri 11:15:59 AM 41.3600 -88.8820 66° East 365 420 10,800 -1,043 Descending FlightAware ADS-B
Fri 11:16:34 AM 41.3830 -88.8130 66° East 358 412 10,200 -1,176 Descending FlightAware ADS-B
Fri 11:16:50 AM 41.3960 -88.7750 65° Northeast 343 395 9,800 -1,059 Descending FlightAware ADS-B
Fri 11:17:08 AM 41.4060 -88.7430 67° East 327 376 9,600 -600 Descending FlightAware ADS-B
Fri 11:17:30 AM 41.4190 -88.7070 64° Northeast 305 351 9,400 -1,286 Descending FlightAware ADS-B
Fri 11:17:50 AM 41.4310 -88.6720 65° Northeast 298 343 8,700 -2,167 Descending FlightAware ADS-B
Fri 11:18:06 AM 41.4400 -88.6450 66° East 294 338 8,100 -2,270 Descending FlightAware ADS-B
Fri 11:18:27 AM 41.4510 -88.6110 67° East 293 337 7,300 -2,286 Descending FlightAware ADS-B
Fri 11:18:48 AM 41.4630 -88.5750 66° East 283 326 6,500 -1,731 Descending FlightAware ADS-B
Fri 11:19:19 AM 41.4780 -88.5280 67° East 277 319 5,800 -960 Descending FlightAware ADS-B
Fri 11:19:38 AM 41.4880 -88.4960 67° East 279 321 5,700  Descending FlightAware ADS-B
Fri 11:19:58 AM 41.4980 -88.4640 67° East 279 321 5,800 167 Climbing FlightAware ADS-B
Fri 11:20:14 AM 41.5050 -88.4390 69° East 280 322 5,800  Level FlightAware ADS-B
Fri 11:20:33 AM 41.5130 -88.4090 70° East 279 321 5,800  Level FlightAware ADS-B
Fri 11:20:54 AM 41.5240 -88.3720 68° East 279 321 5,800  Level FlightAware ADS-B
Fri 11:21:10 AM 41.5300 -88.3510 69° East 278 320 5,800  Level FlightAware ADS-B
Fri 11:21:30 AM 41.5390 -88.3180 70° East 278 320 5,800  Level FlightAware ADS-B
Fri 11:21:50 AM 41.5490 -88.2840 69° East 279 321 5,800  Level FlightAware ADS-B
Fri 11:22:11 AM 41.5580 -88.2530 69° East 279 321 5,800  Level FlightAware ADS-B
Fri 11:22:21 AM 41.5610 -88.2360 77° East 280 322 5,800  Level FlightAware ADS-B
Fri 11:22:38 AM 41.5620 -88.2040 88° East 281 323 5,800  Level FlightAware ADS-B
Fri 11:23:00 AM 41.5630 -88.1650 88° East 282 325 5,800 -136 Level FlightAware ADS-B
Fri 11:23:22 AM 41.5630 -88.1260 90° East 280 322 5,700 -585 Descending FlightAware ADS-B
Fri 11:23:41 AM 41.5640 -88.0970 87° East 279 321 5,400 -1,317 Descending FlightAware ADS-B
Fri 11:24:03 AM 41.5640 -88.0590 90° East 282 325 4,800 -933 Descending FlightAware ADS-B
Fri 11:24:26 AM 41.5650 -88.0170 88° East 285 328 4,700 -194 Descending FlightAware ADS-B
Fri 11:24:34 AM 41.5670 -88.0050 77° East 284 327 4,700 214 Level FlightAware ADS-B
Fri 11:24:54 AM 41.5770 -87.9700 69° East 281 323 4,800  Climbing FlightAware ADS-B
Fri 11:25:11 AM 41.5860 -87.9460 63° Northeast 276 318 4,700 -1,050 Descending FlightAware ADS-B
Fri 11:25:34 AM 41.6020 -87.9110 59° Northeast 275 316 4,100 -1,600 Descending FlightAware ADS-B
Fri 11:25:56 AM 41.6160 -87.8810 58° Northeast 273 314 3,500 -1,535 Descending FlightAware ADS-B
Fri 11:26:17 AM 41.6310 -87.8500 57° Northeast 271 312 3,000 -1,000 Descending FlightAware ADS-B
Fri 11:26:38 AM 41.6440 -87.8220 58° Northeast 256 295 2,800 -571 Descending FlightAware ADS-B
Fri 11:26:59 AM 41.6570 -87.7950 57° Northeast 242 278 2,600 -632 Descending FlightAware ADS-B
Fri 11:27:16 AM 41.6680 -87.7740 55° Northeast 232 267 2,400 -409 Descending FlightAware ADS-B
Fri 11:27:43 AM 41.6830 -87.7440 56° Northeast 228 262 2,300 -128 Descending FlightAware ADS-B
Fri 11:28:03 AM 41.6980 -87.7220 48° Northeast 231 266 2,300  Level FlightAware ADS-B
Fri 11:28:23 AM 41.7120 -87.7010 48° Northeast 229 264 2,300  Level FlightAware ADS-B
Fri 11:28:38 AM 41.7220 -87.6870 46° Northeast 229 264 2,300 -171 Level FlightAware ADS-B
Fri 11:28:58 AM 41.7370 -87.6660 46° Northeast 220 253 2,200  Descending FlightAware ADS-B
Fri 11:29:20 AM 41.7540 -87.6490 37° Northeast 197 227 2,300 214 Climbing FlightAware ADS-B
Fri 11:29:26 AM 41.7600 -87.6480 North 195 224 2,300 -222 Level FlightAware ADS-B
Fri 11:29:47 AM 41.7770 -87.6490 357° North 179 206 2,200 -444 Descending FlightAware ADS-B
Fri 11:29:53 AM 41.7820 -87.6500 352° North 173 199 2,100 -857 Descending FlightAware ADS-B
Fri 11:30:08 AM 41.7940 -87.6560 340° North 160 184 1,900 -828 Descending FlightAware ADS-B
Fri 11:30:22 AM 41.8020 -87.6640 323° Northwest 156 180 1,700 -909 Descending FlightAware ADS-B
Fri 11:30:41 AM 41.8110 -87.6750 318° Northwest 147 169 1,400 -960 Descending FlightAware ADS-B
Fri 11:30:47 AM 41.8140 -87.6790 315° West 144 166 1,300 -750 Descending FlightAware ADS-B
Fri 11:30:57 AM 41.8160 -87.6870 289° West 140 161 1,200 -480 Descending FlightAware ADS-B
Fri 11:31:12 AM 41.8160 -87.7010 270° West 133 153 1,100 -113 Descending FlightAware ADS-B
Fri 11:31:50 AM 41.8120 -87.7280 259° West 133 153 1,100  Level FlightAware ADS-B
Fri 11:32:26 AM 41.7978 -87.7544 259° West 146 168 1,100  Level Chicago Center

Login

Don't have an account? Register now (free) for customized features, flight alerts, and more!